New Carlisle, Ohio
Current Conditions -  °F | °C
As of 8:58 PM on Wednesday 17 Dec 2014 (Local Time) from KFFO Reporting Station
Overcast Overcast  
Wind Chill: 15°   Ceiling: 1400
Heat Index: 26°   Visibility: 10mi
Dew Point: 20°   Wind: 12mph
Humidity: 79%   Direction: 280°W
Pressure: 30.25"   Gusts: NA
Location:  39.94°N, 84.02°W
Report Text: KFFO 180158Z 28010KT 10SM OVC014 M03/M07 A3025 RMK AO2A SLP256 T10351066
Loading
Personal Weather Stations






























Interactive Weather Map New forecast layout! Learn more

10-Day Weather Forecast

Advertisements
Track Severe Weather on mobile